Dorothy Ann — WDE8761 — position and weather

sailwx.info

Track history (hours):
 
Tides and Currents Weather Stations Pressure Air Temp Water Temp Dewpoint Dewpoint Depression Visibility Wind Speed Wind Dir Waves Ship Positions

Dorothy Ann

Owner: THE INTERLAKE STEAMSHIP COMPANY, Middleburg Heights, OH. More information available from US FCC via Universal Licensing System and Coast Guard Vessel Documentation Center.

Last reported at 2016-May-27 15:00 UTC. Time now 2016-May-27 16:11 UTC.
Position N 41°30' W 081°42'.

Length 215 m; draft 5.9 m.

Type: Cargo ship. MMSI: 367409260.

Wind from 200 at 7 knots

Barometer 1016.8 mb
Air temperature 25.5 ° C
Water temperature 25.5 ° C

Date/timePositionNaut miles runAvg speedWind from/ knotsBaromVisibWave heightAir tempDewpointWater temp
2016-May-27 15:00N 41°30' W 081°42'0 0.0 200 / 71016.8 25.5 25.5
2016-May-27 13:00N 41°30' W 081°42'0 0.0 250 / 101017.1 23.2 25.4
2016-May-27 12:00N 41°30' W 081°42'0 0.0 250 / 81017.1 22.7 25.7
2016-May-27 11:00N 41°30' W 081°42'0 0.0 220 / 51016.8 22.3 26.4
2016-May-27 09:00N 41°30' W 081°42'0 0.0 200 / 21015.7 21.6 25.2
2016-May-27 07:00N 41°30' W 081°42'0 0.0 190 / 81015.4 22.4 20.0
2016-May-27 06:00N 41°30' W 081°42'0 0.0 190 / 101016.1 23.1 19.6
2016-May-27 05:00N 41°30' W 081°42'0 0.0 170 / 91015.7 23.9 19.7
2016-May-27 02:00N 41°30' W 081°42'0 0.0 190 / 91014.4 26.0 19.8
2016-May-27 00:00N 41°30' W 081°42'0 0.0 190 / 81014.0 28.3 19.9
2016-May-26 23:00N 41°30' W 081°42'0 0.0 180 / 41014.0 28.7 24.8
2016-May-26 20:00N 41°30' W 081°42'0 0.0 200 / 121015.1 28.0 25.6
2016-May-26 19:00N 41°30' W 081°42'0 0.0 320 / 71016.1 29.6 24.8
2016-May-26 18:00N 41°30' W 081°42'0 0.0 240 / 91016.1 27.9 24.7
2016-May-26 17:00N 41°30' W 081°42'0 0.0 190 / 61016.8 28.8 25.0
2016-May-26 15:00N 41°30' W 081°42'0 0.0 180 / 61017.1 25.9 25.5
2016-May-26 14:00N 41°30' W 081°42'0 0.0 150 / 61017.1 23.8 24.0
2016-May-26 13:00N 41°30' W 081°42'0 0.0 200 / 71017.8 22.3 20.4
2016-May-26 12:00N 41°30' W 081°42'0 0.0 190 / 121017.1 21.7 19.4
2016-May-26 09:00N 41°30' W 081°42'0 0.0 180 / 111017.1 21.7 19.4
2016-May-26 06:00N 41°30' W 081°42'0 0.0 160 / 41017.4 22.7 23.6
2016-May-26 03:00N 41°30' W 081°42'0 0.0 140 / 61018.8 24.7 24.5
2016-May-26 02:00N 41°30' W 081°42'0 0.0 160 / 61018.5 25.4 24.3
2016-May-26 00:00N 41°30' W 081°42'0 0.0 170 / 91017.8 27.1 24.7
2016-May-25 23:00N 41°30' W 081°42'0 0.0 200 / 91018.1 28.0 25.1
2016-May-25 21:00N 41°30' W 081°42'0 0.0 200 / 101018.5 28.1 21.9
2016-May-25 20:00N 41°30' W 081°42'0 0.0 020 / 51018.8 24.6 20.8
2016-May-25 19:00N 41°30' W 081°42'0 0.0 020 / 61019.1 24.6 19.2
2016-May-25 18:00N 41°30' W 081°42'0 0.0 1019.8 21.4 19.7
2016-May-25 17:00N 41°30' W 081°42'0 0.0 1020.1 21.8 19.3
2016-May-25 16:00N 41°30' W 081°42'0 0.0 350 / 61020.8 25.8 19.3
2016-May-25 15:00N 41°30' W 081°42'0 0.0 250 / 91020.5 25.4 18.9
2016-May-25 14:00N 41°30' W 081°42'0 0.0 210 / 51020.5 25.4 22.8
2016-May-25 13:00N 41°30' W 081°42'0 0.0 220 / 51019.8 22.9 23.6
2016-May-25 12:00N 41°30' W 081°42'0 0.0 180 / 41019.8 21.7 24.3
2016-May-25 11:00N 41°30' W 081°42'0 0.0 150 / 21019.8 19.3 23.2
2016-May-25 10:00N 41°30' W 081°42'0 0.0 170 / 21019.1 21.1 23.2
2016-May-25 09:00N 41°30' W 081°42'0 0.0 230 / 71018.8 21.5 23.4
2016-May-25 06:00N 41°30' W 081°42'0 0.0 090 / 11018.1 19.2 23.1
2016-May-25 03:00N 41°30' W 081°42'0 0.0 170 / 101018.1 22.2 19.3
2016-May-25 00:00N 41°30' W 081°42'0 0.0 240 / 11017.4 27.4 19.2
2016-May-24 23:00N 41°30' W 081°42'0 0.0 310 / 11016.8 25.9 19.1
2016-May-24 22:00N 41°30' W 081°42'0 0.0 320 / 41017.1 25.0 22.5
2016-May-24 21:00N 41°30' W 081°42'0 0.0 320 / 31017.8 25.9 23.6
2016-May-24 20:00N 41°30' W 081°42'0 0.0 340 / 131017.8 24.6 24.3
2016-May-24 18:00N 41°30' W 081°42'0 0.0 330 / 101018.5 24.1 23.1
2016-May-24 17:00N 41°30' W 081°42'0 0.0 310 / 121018.8 23.8 23.2
2016-May-24 14:00N 41°30' W 081°42'7 3.7 280 / 81019.1 22.4 22.1
2016-May-24 12:00N 41°36' W 081°48'9 9.0 210 / 131018.1 15.8 17.1
2016-May-24 11:00N 41°36' W 082°00'55 9.1 220 / 141017.4 15.0 16.8
2016-May-24 05:00N 42°00' W 083°06'6 6.0 210 / 81016.4 16.8 17.6
2016-May-24 04:00N 42°06' W 083°06'1212.0 210 / 81016.5 16.4 17.3
2016-May-24 03:00N 42°18' W 083°06'0 0.0 210 / 91016.5 17.1 17.7
2016-May-24 00:00N 42°18' W 083°06'25 8.4 180 / 81015.5 21.6 17.9
2016-May-23 21:00N 42°30' W 082°36'1312.8 200 / 61016.5 21.6 14.2
2016-May-23 20:00N 42°42' W 082°30'6 6.0 210 / 121017.1 22.3 14.3
2016-May-23 19:00N 42°48' W 082°30'1312.8 210 / 131017.1 22.2 14.0
2016-May-23 18:00N 43°00' W 082°24'1212.0 020 / 71018.4 12.1 13.3
2016-May-23 17:00N 43°12' W 082°24'6 6.0 100 / 111018.8 9.8 11.9
2016-May-23 16:00N 43°18' W 082°24'1212.0 100 / 121019.1 9.5 10.9
2016-May-23 15:00N 43°30' W 082°24'6 6.0 030 / 71020.1 11.4 9.6
2016-May-23 14:00N 43°36' W 082°24'106 9.7 340 / 41020.1 11.9 9.2
2016-May-23 03:00N 45°18' W 083°06'3010.0 220 / 121017.4 14.2 8.1
2016-May-23 00:00N 45°24' W 083°48'0 0.0 020 / 21017.1 16.6 14.2
2016-May-22 22:00N 45°24' W 083°48'0 0.0 340 / 31017.7 16.7 14.3
2016-May-22 21:00N 45°24' W 083°48'0 0.0 010 / 21018.4 15.2 14.4
2016-May-22 19:00N 45°24' W 083°48'0 0.0 030 / 31019.1 12.6 13.7
2016-May-22 18:00N 45°24' W 083°48'0 0.0 030 / 31020.1 11.2 13.6
2016-May-22 17:00N 45°24' W 083°48'2010.9 010 / 31020.4 10.1 12.1
2016-May-22 15:09N 45°42' W 084°01'6 9.9
2016-May-22 14:33N 45°47' W 084°05'10 9.9
2016-May-22 13:33N 45°55' W 084°13'610.5
2016-May-22 13:00N 46°00' W 084°18'1 3.2 040 / 41021.5 12.8 11.5
2016-May-22 12:33N 45°59' W 084°17'1 2.5
2016-May-22 12:00N 46°00' W 084°18'1 3.2 020 / 51020.8 11.0 11.8
2016-May-22 11:33N 45°59' W 084°17'1 2.5
2016-May-22 11:00N 46°00' W 084°18'1 3.2 010 / 51020.1 8.5 11.5
2016-May-22 10:33N 45°59' W 084°17'6 5.6
2016-May-22 09:33N 45°55' W 084°12'1010.0
2016-May-22 08:33N 45°48' W 084°01'1010.1
2016-May-22 07:33N 45°41' W 083°51'5 9.5
2016-May-22 07:00N 45°36' W 083°48'1010.3 050 / 181018.1 11.7 7.2
2016-May-22 06:00N 45°30' W 083°36'1010.3 030 / 161018.1 11.8 7.8
2016-May-22 05:00N 45°24' W 083°24'7 7.3 010 / 171017.7 11.0 10.7
2016-May-22 04:00N 45°18' W 083°18'1514.7 1017.4 11.2 7.7
2016-May-22 03:00N 45°06' W 083°06'6 6.0 360 / 181016.7 13.5 10.7
2016-May-22 02:00N 45°00' W 083°06'1312.7 1016.4 13.5 9.8
2016-May-22 01:00N 44°48' W 083°00'7 7.4 010 / 261016.0 12.4 9.8
2016-May-22 00:00N 44°42' W 082°54'1312.7 340 / 121016.4 16.4 9.4
2016-May-21 23:00N 44°30' W 082°48'6 6.0 350 / 101016.4 16.6 10.0
2016-May-21 22:00N 44°24' W 082°48'3110.4 010 / 91016.7 13.6 10.6
2016-May-21 19:00N 43°54' W 082°36'7 7.4 330 / 121017.7 11.0 10.6
2016-May-21 18:00N 43°48' W 082°30'1212.0 350 / 101018.4 10.5 11.5
2016-May-21 17:00N 43°36' W 082°30'19 9.3 1018.8 12.0 11.7
2016-May-21 15:00N 43°18' W 082°24'1212.0 360 / 211018.4 10.0 11.6
2016-May-21 14:00N 43°06' W 082°24'19 6.2 360 / 151018.4 9.6 12.2
2016-May-21 11:00N 42°48' W 082°30'19 9.3 010 / 101018.1 12.5 13.2
2016-May-21 09:00N 42°30' W 082°36'9 8.8 040 / 61017.9 12.8 12.9
2016-May-21 08:00N 42°30' W 082°48'7 7.5 010 / 141017.9 13.8 14.7
2016-May-21 07:00N 42°24' W 082°54'1110.7 010 / 61018.2 14.6 16.8
2016-May-21 06:00N 42°18' W 083°06'0 0.0 040 / 61018.9 15.7 17.2
2016-May-21 05:00N 42°18' W 083°06'0 0.0 010 / 21019.6 17.0 17.7
2016-May-21 03:00N 42°18' W 083°06'0 0.0 060 / 71019.9 17.0 21.5
2016-May-21 02:00N 42°18' W 083°06'0 0.0 080 / 61019.6 18.2 21.6
2016-May-21 00:00N 42°18' W 083°06'0 0.0 080 / 41019.6 19.4 22.2
2016-May-20 23:00N 42°18' W 083°06'0 0.0 060 / 71019.9 19.7 21.9
2016-May-20 22:00N 42°18' W 083°06'0 0.0 040 / 61020.6 20.2 21.7
2016-May-20 21:00N 42°18' W 083°06'0 0.0 120 / 81021.3 20.8 21.5
2016-May-20 19:00N 42°18' W 083°06'0 0.0 120 / 61021.9 19.7 22.0
2016-May-20 18:00N 42°18' W 083°06'2110.7 060 / 111023.0 20.7 16.2
2016-May-20 16:00N 42°30' W 082°42'7 7.5 170 / 21025.0 14.4 12.7
2016-May-20 15:00N 42°36' W 082°36'7 7.4 120 / 81025.2 17.8 12.8
2016-May-20 14:00N 42°42' W 082°30'1212.0 350 / 11025.2 15.8 12.7
2016-May-20 13:00N 42°54' W 082°30'7 7.4 350 / 31025.5 13.6 12.5
2016-May-20 12:00N 43°00' W 082°24'1212.0 090 / 11025.5 9.8 11.9
2016-May-20 11:00N 43°12' W 082°24'36 9.0 140 / 31024.8 9.2 10.3
2016-May-20 07:00N 43°48' W 082°24'19 9.3 170 / 111022.8 11.9 8.7
2016-May-20 05:00N 44°06' W 082°30'7 7.4 180 / 161022.5 12.1 8.3
2016-May-20 04:00N 44°12' W 082°36'57 9.4 200 / 121022.8 15.4 8.8
2016-May-19 22:00N 45°06' W 083°00'15 7.3 200 / 181022.1 12.9 8.8
2016-May-19 20:00N 45°18' W 083°12'8 8.4 160 / 91022.5 12.1 7.4
2016-May-19 19:00N 45°18' W 083°24'0 0.0 140 / 111022.5 12.0 10.4
2016-May-19 18:00N 45°18' W 083°24'0 0.0 040 / 21022.8 10.1 10.4
2016-May-19 16:00N 45°18' W 083°24'0 0.0 360 / 101023.5 9.7 10.6
2016-May-19 15:00N 45°18' W 083°24'0 0.0 340 / 101023.5 10.8 10.5
2016-May-19 12:00N 45°18' W 083°24'0 0.0 280 / 61023.5 9.9 10.1
2016-May-19 10:00N 45°18' W 083°24'0 0.0 280 / 41022.8 8.2 10.2
2016-May-19 09:00N 45°18' W 083°24'0 0.0 270 / 51022.5 8.4 9.9
2016-May-19 08:00N 45°18' W 083°24'0 0.0 260 / 71022.1 9.6 10.1
2016-May-19 07:00N 45°18' W 083°24'0 0.0 240 / 91022.1 10.7 10.4
2016-May-19 06:00N 45°18' W 083°24'0 0.0 260 / 91022.1 9.6 10.5
2016-May-19 05:00N 45°18' W 083°24'0 0.0 240 / 51022.5 10.4 10.1
2016-May-19 04:00N 45°18' W 083°24'0 0.0 250 / 51022.5 10.3 10.3
2016-May-19 03:00N 45°18' W 083°24'0 0.0 190 / 51022.8 10.1 10.3
2016-May-19 02:00N 45°18' W 083°24'10 3.4 170 / 61022.8 9.9 10.5
2016-May-18 23:00N 45°24' W 083°36'1010.3 140 / 91022.1 12.6 9.0
2016-May-18 22:00N 45°30' W 083°48'1010.3 130 / 111022.5 11.1 8.2
2016-May-18 21:00N 45°36' W 084°00'710.7 120 / 111022.8 8.9 8.6
2016-May-18 20:23N 45°38' W 084°09'511.8
2016-May-18 20:00N 45°42' W 084°12'512.0 150 / 101023.5 6.9 9.3
2016-May-18 19:33N 45°41' W 084°19'3 6.0
2016-May-18 19:00N 45°42' W 084°24'613.7 090 / 101024.2 6.5 10.4
2016-May-18 18:33N 45°44' W 084°32'5 8.8
2016-May-18 18:00N 45°48' W 084°36'613.4 340 / 61024.8 8.5 10.4
2016-May-18 17:33N 45°49' W 084°44'712.1
2016-May-18 17:00N 45°48' W 084°54'4 8.1 250 / 91025.2 8.2 10.5
2016-May-18 16:33N 45°50' W 084°59'5 9.6
2016-May-18 16:00N 45°48' W 085°06'2 5.6 200 / 71025.5 6.8 10.4
2016-May-18 15:33N 45°47' W 085°09'5 9.0
2016-May-18 15:00N 45°42' W 085°12'510.9 350 / 11025.9 6.5 10.1
2016-May-18 14:33N 45°39' W 085°17'3 4.8
2016-May-18 14:00N 45°36' W 085°18'716.9 1026.2 6.2 8.2
2016-May-18 13:33N 45°31' W 085°25'10 9.9
2016-May-18 12:33N 45°23' W 085°33'5 8.7
2016-May-18 12:00N 45°18' W 085°36'512.2 310 / 81025.9 5.0 7.8
2016-May-18 11:33N 45°15' W 085°42'5 9.0
2016-May-18 11:00N 45°12' W 085°48'612.9 350 / 61025.5 6.3 8.0
2016-May-18 10:33N 45°07' W 085°50'10 9.7
2016-May-18 09:33N 44°59' W 085°60'5 8.2
2016-May-18 09:00N 45°00' W 086°06'813.9 050 / 101024.8 7.2 9.6
2016-May-18 08:26N 44°54' W 086°12'715.8
2016-May-18 08:00N 44°48' W 086°18'2 4.6 040 / 81024.8 6.5 9.4
2016-May-18 07:32N 44°46' W 086°19'610.1
2016-May-18 07:00N 44°42' W 086°24'1212.0 040 / 131024.8 7.4 8.8
2016-May-18 06:00N 44°30' W 086°24'7 7.4 040 / 91024.8 8.8 8.2
2016-May-18 05:00N 44°24' W 086°30'19 9.3 060 / 141024.5 9.9 8.4
2016-May-18 03:00N 44°06' W 086°36'1212.0 040 / 181024.2 8.0 8.1
2016-May-18 02:00N 43°54' W 086°36'18 9.0 030 / 191023.5 7.6 8.6
2016-May-18 00:00N 43°36' W 086°36'1312.8 1022.5 9.1 9.6
2016-May-17 23:00N 43°24' W 086°30'2010.0 340 / 181022.5 7.2 9.9
2016-May-17 21:00N 43°06' W 086°18'4 4.4 330 / 241022.5 8.2 11.3
2016-May-17 20:00N 43°06' W 086°12'0 0.0 320 / 111022.8 9.9 17.6
2016-May-17 19:00N 43°06' W 086°12'0 0.0 330 / 111023.5 13.5 17.5
2016-May-17 18:00N 43°06' W 086°12'0 0.0 320 / 121023.5 12.7 17.3
2016-May-17 17:00N 43°06' W 086°12'0 0.0 260 / 61023.8 13.6 17.0
2016-May-17 15:00N 43°06' W 086°12'   110 / 81023.8 14.1 16.6
Track history (hours):
 
Tides and Currents Weather Stations Pressure Air Temp Water Temp Dewpoint Dewpoint Depression Visibility Wind Speed Wind Dir Waves Ship Positions

Dorothy Ann

Owner: THE INTERLAKE STEAMSHIP COMPANY, Middleburg Heights, OH. More information available from US FCC via Universal Licensing System and Coast Guard Vessel Documentation Center.

Last reported at 2016-May-27 15:00 UTC. Time now 2016-May-27 16:11 UTC.
Position N 41°30' W 081°42'.

Length 215 m; draft 5.9 m.

Type: Cargo ship. MMSI: 367409260.

Wind from 200 at 7 knots

Barometer 1016.8 mb
Air temperature 25.5 ° C
Water temperature 25.5 ° C

Date/timePositionNaut miles runAvg speedWind from/ knotsBaromVisibWave heightAir tempDewpointWater temp
2016-May-27 15:00N 41°30' W 081°42'0 0.0 200 / 71016.8 25.5 25.5
2016-May-27 13:00N 41°30' W 081°42'0 0.0 250 / 101017.1 23.2 25.4
2016-May-27 12:00N 41°30' W 081°42'0 0.0 250 / 81017.1 22.7 25.7
2016-May-27 11:00N 41°30' W 081°42'0 0.0 220 / 51016.8 22.3 26.4
2016-May-27 09:00N 41°30' W 081°42'0 0.0 200 / 21015.7 21.6 25.2
2016-May-27 07:00N 41°30' W 081°42'0 0.0 190 / 81015.4 22.4 20.0
2016-May-27 06:00N 41°30' W 081°42'0 0.0 190 / 101016.1 23.1 19.6
2016-May-27 05:00N 41°30' W 081°42'0 0.0 170 / 91015.7 23.9 19.7
2016-May-27 02:00N 41°30' W 081°42'0 0.0 190 / 91014.4 26.0 19.8
2016-May-27 00:00N 41°30' W 081°42'0 0.0 190 / 81014.0 28.3 19.9
2016-May-26 23:00N 41°30' W 081°42'0 0.0 180 / 41014.0 28.7 24.8
2016-May-26 20:00N 41°30' W 081°42'0 0.0 200 / 121015.1 28.0 25.6
2016-May-26 19:00N 41°30' W 081°42'0 0.0 320 / 71016.1 29.6 24.8
2016-May-26 18:00N 41°30' W 081°42'0 0.0 240 / 91016.1 27.9 24.7
2016-May-26 17:00N 41°30' W 081°42'0 0.0 190 / 61016.8 28.8 25.0
2016-May-26 15:00N 41°30' W 081°42'0 0.0 180 / 61017.1 25.9 25.5
2016-May-26 14:00N 41°30' W 081°42'0 0.0 150 / 61017.1 23.8 24.0
2016-May-26 13:00N 41°30' W 081°42'0 0.0 200 / 71017.8 22.3 20.4
2016-May-26 12:00N 41°30' W 081°42'0 0.0 190 / 121017.1 21.7 19.4
2016-May-26 09:00N 41°30' W 081°42'0 0.0 180 / 111017.1 21.7 19.4
2016-May-26 06:00N 41°30' W 081°42'0 0.0 160 / 41017.4 22.7 23.6
2016-May-26 03:00N 41°30' W 081°42'0 0.0 140 / 61018.8 24.7 24.5
2016-May-26 02:00N 41°30' W 081°42'0 0.0 160 / 61018.5 25.4 24.3
2016-May-26 00:00N 41°30' W 081°42'0 0.0 170 / 91017.8 27.1 24.7
2016-May-25 23:00N 41°30' W 081°42'0 0.0 200 / 91018.1 28.0 25.1
2016-May-25 21:00N 41°30' W 081°42'0 0.0 200 / 101018.5 28.1 21.9
2016-May-25 20:00N 41°30' W 081°42'0 0.0 020 / 51018.8 24.6 20.8
2016-May-25 19:00N 41°30' W 081°42'0 0.0 020 / 61019.1 24.6 19.2
2016-May-25 18:00N 41°30' W 081°42'0 0.0 1019.8 21.4 19.7
2016-May-25 17:00N 41°30' W 081°42'0 0.0 1020.1 21.8 19.3
2016-May-25 16:00N 41°30' W 081°42'0 0.0 350 / 61020.8 25.8 19.3
2016-May-25 15:00N 41°30' W 081°42'0 0.0 250 / 91020.5 25.4 18.9
2016-May-25 14:00N 41°30' W 081°42'0 0.0 210 / 51020.5 25.4 22.8
2016-May-25 13:00N 41°30' W 081°42'0 0.0 220 / 51019.8 22.9 23.6
2016-May-25 12:00N 41°30' W 081°42'0 0.0 180 / 41019.8 21.7 24.3
2016-May-25 11:00N 41°30' W 081°42'0 0.0 150 / 21019.8 19.3 23.2
2016-May-25 10:00N 41°30' W 081°42'0 0.0 170 / 21019.1 21.1 23.2
2016-May-25 09:00N 41°30' W 081°42'0 0.0 230 / 71018.8 21.5 23.4
2016-May-25 06:00N 41°30' W 081°42'0 0.0 090 / 11018.1 19.2 23.1
2016-May-25 03:00N 41°30' W 081°42'0 0.0 170 / 101018.1 22.2 19.3
2016-May-25 00:00N 41°30' W 081°42'0 0.0 240 / 11017.4 27.4 19.2
2016-May-24 23:00N 41°30' W 081°42'0 0.0 310 / 11016.8 25.9 19.1
2016-May-24 22:00N 41°30' W 081°42'0 0.0 320 / 41017.1 25.0 22.5
2016-May-24 21:00N 41°30' W 081°42'0 0.0 320 / 31017.8 25.9 23.6
2016-May-24 20:00N 41°30' W 081°42'0 0.0 340 / 131017.8 24.6 24.3
2016-May-24 18:00N 41°30' W 081°42'0 0.0 330 / 101018.5 24.1 23.1
2016-May-24 17:00N 41°30' W 081°42'0 0.0 310 / 121018.8 23.8 23.2
2016-May-24 14:00N 41°30' W 081°42'7 3.7 280 / 81019.1 22.4 22.1
2016-May-24 12:00N 41°36' W 081°48'9 9.0 210 / 131018.1 15.8 17.1
2016-May-24 11:00N 41°36' W 082°00'55 9.1 220 / 141017.4 15.0 16.8
2016-May-24 05:00N 42°00' W 083°06'6 6.0 210 / 81016.4 16.8 17.6
2016-May-24 04:00N 42°06' W 083°06'1212.0 210 / 81016.5 16.4 17.3
2016-May-24 03:00N 42°18' W 083°06'0 0.0 210 / 91016.5 17.1 17.7
2016-May-24 00:00N 42°18' W 083°06'25 8.4 180 / 81015.5 21.6 17.9
2016-May-23 21:00N 42°30' W 082°36'1312.8 200 / 61016.5 21.6 14.2
2016-May-23 20:00N 42°42' W 082°30'6 6.0 210 / 121017.1 22.3 14.3
2016-May-23 19:00N 42°48' W 082°30'1312.8 210 / 131017.1 22.2 14.0
2016-May-23 18:00N 43°00' W 082°24'1212.0 020 / 71018.4 12.1 13.3
2016-May-23 17:00N 43°12' W 082°24'6 6.0 100 / 111018.8 9.8 11.9
2016-May-23 16:00N 43°18' W 082°24'1212.0 100 / 121019.1 9.5 10.9
2016-May-23 15:00N 43°30' W 082°24'6 6.0 030 / 71020.1 11.4 9.6
2016-May-23 14:00N 43°36' W 082°24'106 9.7 340 / 41020.1 11.9 9.2
2016-May-23 03:00N 45°18' W 083°06'3010.0 220 / 121017.4 14.2 8.1
2016-May-23 00:00N 45°24' W 083°48'0 0.0 020 / 21017.1 16.6 14.2
2016-May-22 22:00N 45°24' W 083°48'0 0.0 340 / 31017.7 16.7 14.3
2016-May-22 21:00N 45°24' W 083°48'0 0.0 010 / 21018.4 15.2 14.4
2016-May-22 19:00N 45°24' W 083°48'0 0.0 030 / 31019.1 12.6 13.7
2016-May-22 18:00N 45°24' W 083°48'0 0.0 030 / 31020.1 11.2 13.6
2016-May-22 17:00N 45°24' W 083°48'2010.9 010 / 31020.4 10.1 12.1
2016-May-22 15:09N 45°42' W 084°01'6 9.9
2016-May-22 14:33N 45°47' W 084°05'10 9.9
2016-May-22 13:33N 45°55' W 084°13'610.5
2016-May-22 13:00N 46°00' W 084°18'1 3.2 040 / 41021.5 12.8 11.5
2016-May-22 12:33N 45°59' W 084°17'1 2.5
2016-May-22 12:00N 46°00' W 084°18'1 3.2 020 / 51020.8 11.0 11.8
2016-May-22 11:33N 45°59' W 084°17'1 2.5
2016-May-22 11:00N 46°00' W 084°18'1 3.2 010 / 51020.1 8.5 11.5
2016-May-22 10:33N 45°59' W 084°17'6 5.6
2016-May-22 09:33N 45°55' W 084°12'1010.0
2016-May-22 08:33N 45°48' W 084°01'1010.1
2016-May-22 07:33N 45°41' W 083°51'5 9.5
2016-May-22 07:00N 45°36' W 083°48'1010.3 050 / 181018.1 11.7 7.2
2016-May-22 06:00N 45°30' W 083°36'1010.3 030 / 161018.1 11.8 7.8
2016-May-22 05:00N 45°24' W 083°24'7 7.3 010 / 171017.7 11.0 10.7
2016-May-22 04:00N 45°18' W 083°18'1514.7 1017.4 11.2 7.7
2016-May-22 03:00N 45°06' W 083°06'6 6.0 360 / 181016.7 13.5 10.7
2016-May-22 02:00N 45°00' W 083°06'1312.7 1016.4 13.5 9.8
2016-May-22 01:00N 44°48' W 083°00'7 7.4 010 / 261016.0 12.4 9.8
2016-May-22 00:00N 44°42' W 082°54'1312.7 340 / 121016.4 16.4 9.4
2016-May-21 23:00N 44°30' W 082°48'6 6.0 350 / 101016.4 16.6 10.0
2016-May-21 22:00N 44°24' W 082°48'3110.4 010 / 91016.7 13.6 10.6
2016-May-21 19:00N 43°54' W 082°36'7 7.4 330 / 121017.7 11.0 10.6
2016-May-21 18:00N 43°48' W 082°30'1212.0 350 / 101018.4 10.5 11.5
2016-May-21 17:00N 43°36' W 082°30'19 9.3 1018.8 12.0 11.7
2016-May-21 15:00N 43°18' W 082°24'1212.0 360 / 211018.4 10.0 11.6
2016-May-21 14:00N 43°06' W 082°24'19 6.2 360 / 151018.4 9.6 12.2
2016-May-21 11:00N 42°48' W 082°30'19 9.3 010 / 101018.1 12.5 13.2
2016-May-21 09:00N 42°30' W 082°36'9 8.8 040 / 61017.9 12.8 12.9
2016-May-21 08:00N 42°30' W 082°48'7 7.5 010 / 141017.9 13.8 14.7
2016-May-21 07:00N 42°24' W 082°54'1110.7 010 / 61018.2 14.6 16.8
2016-May-21 06:00N 42°18' W 083°06'0 0.0 040 / 61018.9 15.7 17.2
2016-May-21 05:00N 42°18' W 083°06'0 0.0 010 / 21019.6 17.0 17.7
2016-May-21 03:00N 42°18' W 083°06'0 0.0 060 / 71019.9 17.0 21.5
2016-May-21 02:00N 42°18' W 083°06'0 0.0 080 / 61019.6 18.2 21.6
2016-May-21 00:00N 42°18' W 083°06'0 0.0 080 / 41019.6 19.4 22.2
2016-May-20 23:00N 42°18' W 083°06'0 0.0 060 / 71019.9 19.7 21.9
2016-May-20 22:00N 42°18' W 083°06'0 0.0 040 / 61020.6 20.2 21.7
2016-May-20 21:00N 42°18' W 083°06'0 0.0 120 / 81021.3 20.8 21.5
2016-May-20 19:00N 42°18' W 083°06'0 0.0 120 / 61021.9 19.7 22.0
2016-May-20 18:00N 42°18' W 083°06'2110.7 060 / 111023.0 20.7 16.2
2016-May-20 16:00N 42°30' W 082°42'7 7.5 170 / 21025.0 14.4 12.7
2016-May-20 15:00N 42°36' W 082°36'7 7.4 120 / 81025.2 17.8 12.8
2016-May-20 14:00N 42°42' W 082°30'1212.0 350 / 11025.2 15.8 12.7
2016-May-20 13:00N 42°54' W 082°30'7 7.4 350 / 31025.5 13.6 12.5
2016-May-20 12:00N 43°00' W 082°24'1212.0 090 / 11025.5 9.8 11.9
2016-May-20 11:00N 43°12' W 082°24'36 9.0 140 / 31024.8 9.2 10.3
2016-May-20 07:00N 43°48' W 082°24'19 9.3 170 / 111022.8 11.9 8.7
2016-May-20 05:00N 44°06' W 082°30'7 7.4 180 / 161022.5 12.1 8.3
2016-May-20 04:00N 44°12' W 082°36'57 9.4 200 / 121022.8 15.4 8.8
2016-May-19 22:00N 45°06' W 083°00'15 7.3 200 / 181022.1 12.9 8.8
2016-May-19 20:00N 45°18' W 083°12'8 8.4 160 / 91022.5 12.1 7.4
2016-May-19 19:00N 45°18' W 083°24'0 0.0 140 / 111022.5 12.0 10.4
2016-May-19 18:00N 45°18' W 083°24'0 0.0 040 / 21022.8 10.1 10.4
2016-May-19 16:00N 45°18' W 083°24'0 0.0 360 / 101023.5 9.7 10.6
2016-May-19 15:00N 45°18' W 083°24'0 0.0 340 / 101023.5 10.8 10.5
2016-May-19 12:00N 45°18' W 083°24'0 0.0 280 / 61023.5 9.9 10.1
2016-May-19 10:00N 45°18' W 083°24'0 0.0 280 / 41022.8 8.2 10.2
2016-May-19 09:00N 45°18' W 083°24'0 0.0 270 / 51022.5 8.4 9.9
2016-May-19 08:00N 45°18' W 083°24'0 0.0 260 / 71022.1 9.6 10.1
2016-May-19 07:00N 45°18' W 083°24'0 0.0 240 / 91022.1 10.7 10.4
2016-May-19 06:00N 45°18' W 083°24'0 0.0 260 / 91022.1 9.6 10.5
2016-May-19 05:00N 45°18' W 083°24'0 0.0 240 / 51022.5 10.4 10.1
2016-May-19 04:00N 45°18' W 083°24'0 0.0 250 / 51022.5 10.3 10.3
2016-May-19 03:00N 45°18' W 083°24'0 0.0 190 / 51022.8 10.1 10.3
2016-May-19 02:00N 45°18' W 083°24'10 3.4 170 / 61022.8 9.9 10.5
2016-May-18 23:00N 45°24' W 083°36'1010.3 140 / 91022.1 12.6 9.0
2016-May-18 22:00N 45°30' W 083°48'1010.3 130 / 111022.5 11.1 8.2
2016-May-18 21:00N 45°36' W 084°00'710.7 120 / 111022.8 8.9 8.6
2016-May-18 20:23N 45°38' W 084°09'511.8
2016-May-18 20:00N 45°42' W 084°12'512.0 150 / 101023.5 6.9 9.3
2016-May-18 19:33N 45°41' W 084°19'3 6.0
2016-May-18 19:00N 45°42' W 084°24'613.7 090 / 101024.2 6.5 10.4
2016-May-18 18:33N 45°44' W 084°32'5 8.8
2016-May-18 18:00N 45°48' W 084°36'613.4 340 / 61024.8 8.5 10.4
2016-May-18 17:33N 45°49' W 084°44'712.1
2016-May-18 17:00N 45°48' W 084°54'4 8.1 250 / 91025.2 8.2 10.5
2016-May-18 16:33N 45°50' W 084°59'5 9.6
2016-May-18 16:00N 45°48' W 085°06'2 5.6 200 / 71025.5 6.8 10.4
2016-May-18 15:33N 45°47' W 085°09'5 9.0
2016-May-18 15:00N 45°42' W 085°12'510.9 350 / 11025.9 6.5 10.1
2016-May-18 14:33N 45°39' W 085°17'3 4.8
2016-May-18 14:00N 45°36' W 085°18'716.9 1026.2 6.2 8.2
2016-May-18 13:33N 45°31' W 085°25'10 9.9
2016-May-18 12:33N 45°23' W 085°33'5 8.7
2016-May-18 12:00N 45°18' W 085°36'512.2 310 / 81025.9 5.0 7.8
2016-May-18 11:33N 45°15' W 085°42'5 9.0
2016-May-18 11:00N 45°12' W 085°48'612.9 350 / 61025.5 6.3 8.0
2016-May-18 10:33N 45°07' W 085°50'10 9.7
2016-May-18 09:33N 44°59' W 085°60'5 8.2
2016-May-18 09:00N 45°00' W 086°06'813.9 050 / 101024.8 7.2 9.6
2016-May-18 08:26N 44°54' W 086°12'715.8
2016-May-18 08:00N 44°48' W 086°18'2 4.6 040 / 81024.8 6.5 9.4
2016-May-18 07:32N 44°46' W 086°19'610.1
2016-May-18 07:00N 44°42' W 086°24'1212.0 040 / 131024.8 7.4 8.8
2016-May-18 06:00N 44°30' W 086°24'7 7.4 040 / 91024.8 8.8 8.2
2016-May-18 05:00N 44°24' W 086°30'19 9.3 060 / 141024.5 9.9 8.4
2016-May-18 03:00N 44°06' W 086°36'1212.0 040 / 181024.2 8.0 8.1
2016-May-18 02:00N 43°54' W 086°36'18 9.0 030 / 191023.5 7.6 8.6
2016-May-18 00:00N 43°36' W 086°36'1312.8 1022.5 9.1 9.6
2016-May-17 23:00N 43°24' W 086°30'2010.0 340 / 181022.5 7.2 9.9
2016-May-17 21:00N 43°06' W 086°18'4 4.4 330 / 241022.5 8.2 11.3
2016-May-17 20:00N 43°06' W 086°12'0 0.0 320 / 111022.8 9.9 17.6
2016-May-17 19:00N 43°06' W 086°12'0 0.0 330 / 111023.5 13.5 17.5
2016-May-17 18:00N 43°06' W 086°12'0 0.0 320 / 121023.5 12.7 17.3
2016-May-17 17:00N 43°06' W 086°12'0 0.0 260 / 61023.8 13.6 17.0
2016-May-17 15:00N 43°06' W 086°12'   110 / 81023.8 14.1 16.6

Dump ship's entire track history